createdAt,value
2019-04-04T00:00:34.008Z,60.58
2019-04-04T00:03:02.937Z,66.97
2019-04-04T00:05:31.626Z,63.10
2019-04-04T00:08:00.633Z,66.47
2019-04-04T00:10:29.632Z,73.65
2019-04-04T00:12:58.300Z,62.73
2019-04-04T00:15:26.940Z,58.90
2019-04-04T00:17:55.613Z,53.40
2019-04-04T00:20:24.299Z,55.55
2019-04-04T00:22:52.975Z,52.65
2019-04-04T00:25:21.600Z,53.90
2019-04-04T00:27:50.301Z,57.10
2019-04-04T00:30:18.991Z,51.25
2019-04-04T00:32:47.615Z,52.78
2019-04-04T00:35:16.294Z,44.45
2019-04-04T00:37:44.923Z,43.23
2019-04-04T00:40:13.537Z,37.95
2019-04-04T00:42:42.221Z,43.38
2019-04-04T00:45:10.935Z,38.48
2019-04-04T00:47:39.622Z,32.70
2019-04-04T00:50:08.317Z,33.23
2019-04-04T00:52:36.987Z,31.42
2019-04-04T00:55:06.670Z,34.03
2019-04-04T00:57:35.691Z,30.62
2019-04-04T01:00:06.651Z,33.55
2019-04-04T01:02:35.563Z,35.78
2019-04-04T01:05:05.923Z,35.90
2019-04-04T01:07:35.809Z,33.98
2019-04-04T01:10:07.076Z,35.92
2019-04-04T01:12:36.075Z,29.23
2019-04-04T01:15:05.911Z,37.35
2019-04-04T01:17:35.644Z,27.42
2019-04-04T01:20:07.169Z,28.67
2019-04-04T01:22:36.103Z,25.70
2019-04-04T01:25:06.140Z,28.75
2019-04-04T01:27:36.969Z,30.25
2019-04-04T01:30:06.754Z,31.87
2019-04-04T01:32:35.741Z,27.73
2019-04-04T01:35:08.770Z,26.60
2019-04-04T01:37:37.677Z,29.15
2019-04-04T01:40:06.388Z,27.85
2019-04-04T01:42:37.775Z,28.95
2019-04-04T01:45:07.386Z,28.75
2019-04-04T01:47:36.378Z,31.50
2019-04-04T01:50:05.671Z,31.10
2019-04-04T01:52:34.655Z,32.13
2019-04-04T01:55:04.198Z,33.00
2019-04-04T01:57:33.185Z,27.20
2019-04-04T02:00:01.795Z,31.27
2019-04-04T02:02:30.519Z,30.90
2019-04-04T02:04:59.194Z,31.70
2019-04-04T02:07:29.896Z,30.17
2019-04-04T02:09:58.528Z,31.57
2019-04-04T02:12:27.240Z,31.30
2019-04-04T02:14:55.899Z,32.73
2019-04-04T02:17:24.515Z,35.05
2019-04-04T02:19:55.653Z,28.27
2019-04-04T02:22:23.795Z,32.95
2019-04-04T02:24:52.430Z,34.67
2019-04-04T02:27:21.049Z,36.35
2019-04-04T02:29:49.662Z,35.75
2019-04-04T02:32:20.005Z,30.43
2019-04-04T02:34:48.993Z,30.25
2019-04-04T02:37:20.625Z,35.08
2019-04-04T02:39:48.296Z,31.93
2019-04-04T02:42:20.965Z,30.88
2019-04-04T02:44:47.606Z,33.10
2019-04-04T02:47:17.508Z,35.65
2019-04-04T02:49:46.916Z,36.30
2019-04-04T02:52:15.604Z,33.02
2019-04-04T02:54:44.286Z,29.48
2019-04-04T02:57:12.932Z,30.23
2019-04-04T02:59:41.594Z,33.70
2019-04-04T03:02:10.332Z,38.00
2019-04-04T03:04:38.968Z,38.10
2019-04-04T03:07:07.652Z,36.10
2019-04-04T03:09:36.257Z,40.70
2019-04-04T03:12:04.886Z,40.70
2019-04-04T03:14:36.333Z,37.13
2019-04-04T03:17:04.233Z,31.77
2019-04-04T03:19:32.906Z,38.00
2019-04-04T03:22:01.614Z,33.60
2019-04-04T03:24:30.283Z,40.38
2019-04-04T03:26:58.965Z,44.53
2019-04-04T03:29:27.657Z,38.45
2019-04-04T03:31:56.361Z,31.17
2019-04-04T03:34:25.023Z,38.40
2019-04-04T03:36:53.730Z,38.20
2019-04-04T03:39:22.418Z,41.60
2019-04-04T03:41:51.110Z,35.60
2019-04-04T03:44:20.654Z,37.03
2019-04-04T03:46:49.710Z,39.00
2019-04-04T03:49:23.083Z,33.10
2019-04-04T03:51:49.020Z,37.38
2019-04-04T03:54:22.337Z,42.15
2019-04-04T03:56:49.897Z,36.65
2019-04-04T03:59:18.553Z,35.05
2019-04-04T04:01:47.243Z,37.23
2019-04-04T04:04:15.900Z,36.17
2019-04-04T04:06:44.566Z,40.33
2019-04-04T04:09:13.257Z,82.78
2019-04-04T04:11:41.912Z,81.63
2019-04-04T04:14:10.615Z,41.33
2019-04-04T04:16:39.295Z,38.05
2019-04-04T04:19:08.066Z,35.52
2019-04-04T04:21:36.751Z,34.70
2019-04-04T04:24:05.468Z,44.83
2019-04-04T04:26:34.172Z,39.40
2019-04-04T04:29:02.855Z,37.93
2019-04-04T04:31:31.458Z,43.52
2019-04-04T04:34:01.606Z,43.45
2019-04-04T04:36:32.195Z,47.30
2019-04-04T04:39:01.237Z,38.63
2019-04-04T04:41:29.863Z,45.08
2019-04-04T04:43:58.560Z,38.92
2019-04-04T04:46:27.241Z,46.85
2019-04-04T04:48:55.860Z,34.13
2019-04-04T04:51:24.464Z,35.80
2019-04-04T04:53:53.085Z,37.20
2019-04-04T04:56:21.697Z,39.25
2019-04-04T04:58:50.407Z,40.45
2019-04-04T05:01:19.218Z,53.87
2019-04-04T05:03:50.600Z,49.58
2019-04-04T05:06:18.512Z,48.75
2019-04-04T05:08:47.213Z,44.98
2019-04-04T05:11:18.649Z,40.25
2019-04-04T05:13:46.479Z,35.43
2019-04-04T05:16:15.110Z,39.48
2019-04-04T05:18:43.789Z,43.60
2019-04-04T05:21:24.143Z,38.95
2019-04-04T05:23:43.115Z,39.53
2019-04-04T05:26:11.808Z,39.58
2019-04-04T05:28:42.112Z,39.35
2019-04-04T05:31:11.115Z,37.28
2019-04-04T05:33:39.735Z,36.23
2019-04-04T05:36:08.348Z,37.25
2019-04-04T05:38:37.070Z,33.90
2019-04-04T05:41:05.719Z,36.90
2019-04-04T05:43:35.283Z,39.33
2019-04-04T05:46:05.017Z,32.65
2019-04-04T05:48:33.660Z,35.43
2019-04-04T05:51:02.303Z,41.25
2019-04-04T05:53:30.930Z,42.15
2019-04-04T05:55:59.531Z,38.25
2019-04-04T05:58:28.149Z,42.58
2019-04-04T06:00:57.851Z,46.95
2019-04-04T06:03:26.913Z,55.48
2019-04-04T06:05:55.602Z,38.40
2019-04-04T06:08:24.266Z,34.53
2019-04-04T06:10:52.951Z,44.25
2019-04-04T06:13:22.326Z,46.42
2019-04-04T06:15:51.329Z,46.02
2019-04-04T06:18:20.010Z,41.53
2019-04-04T06:20:49.084Z,38.25
2019-04-04T06:25:45.246Z,50.80
2019-04-04T06:28:13.912Z,46.80
2019-04-04T06:30:43.667Z,49.25
2019-04-04T06:33:12.807Z,41.02
2019-04-04T06:35:41.506Z,36.75
2019-04-04T06:38:10.181Z,39.65
2019-04-04T06:40:38.801Z,51.35
2019-04-04T06:43:10.667Z,45.43
2019-04-04T06:45:38.127Z,38.20
2019-04-04T06:48:06.800Z,34.00
2019-04-04T06:50:38.855Z,41.53
2019-04-04T06:53:06.130Z,38.42
2019-04-04T06:55:39.755Z,35.98
2019-04-04T06:58:08.340Z,31.10
2019-04-04T07:00:36.192Z,42.53
2019-04-04T07:03:04.818Z,42.33
2019-04-04T07:05:33.430Z,32.48
2019-04-04T07:08:02.040Z,39.38
2019-04-04T07:10:30.817Z,36.55
2019-04-04T07:13:09.680Z,37.15
2019-04-04T07:15:30.108Z,40.03
2019-04-04T07:17:58.720Z,36.05
2019-04-04T07:20:28.601Z,35.48
2019-04-04T07:22:57.621Z,37.10
2019-04-04T07:25:26.308Z,33.55
2019-04-04T07:27:54.926Z,31.02
2019-04-04T07:30:23.604Z,40.33
2019-04-04T07:32:52.212Z,32.25
2019-04-04T07:35:21.196Z,39.38
2019-04-04T07:37:53.373Z,37.80
2019-04-04T07:40:20.817Z,34.53
2019-04-04T07:42:49.476Z,36.13
2019-04-04T07:45:18.179Z,28.40
2019-04-04T07:47:47.735Z,32.42
2019-04-04T07:50:16.754Z,32.30
2019-04-04T07:52:45.429Z,32.98
2019-04-04T07:55:14.122Z,31.25
2019-04-04T07:57:42.727Z,30.72
2019-04-04T08:00:11.417Z,32.55
2019-04-04T08:02:40.032Z,28.67
2019-04-04T08:05:09.111Z,31.45
2019-04-04T08:07:38.093Z,27.58
2019-04-04T08:10:19.570Z,25.97
2019-04-04T08:12:37.422Z,27.25
2019-04-04T08:15:06.754Z,29.37
2019-04-04T08:17:35.729Z,29.45
2019-04-04T08:20:05.665Z,30.65
2019-04-04T08:22:34.643Z,26.52
2019-04-04T08:25:03.504Z,31.00
2019-04-04T08:27:31.917Z,24.32
2019-04-04T08:30:00.595Z,27.50
2019-04-04T08:32:29.232Z,28.32
2019-04-04T08:34:57.834Z,27.48
2019-04-04T08:37:26.463Z,30.85
2019-04-04T08:39:55.083Z,27.85
2019-04-04T08:42:23.738Z,26.87
2019-04-04T08:44:52.399Z,30.27
2019-04-04T08:47:21.048Z,28.70
2019-04-04T08:49:49.735Z,26.12
2019-04-04T08:52:20.748Z,26.42
2019-04-04T08:54:49.046Z,30.52
2019-04-04T08:57:17.757Z,28.12
2019-04-04T08:59:46.444Z,30.10
2019-04-04T09:02:15.159Z,24.12
2019-04-04T09:04:43.762Z,24.12
2019-04-04T09:07:12.385Z,24.15
2019-04-04T09:09:41.205Z,26.35
2019-04-04T09:12:09.869Z,26.85
2019-04-04T09:14:40.983Z,23.90
2019-04-04T09:17:09.117Z,25.70
2019-04-04T09:19:37.750Z,24.12
2019-04-04T09:22:06.443Z,23.12
2019-04-04T09:24:36.127Z,23.77
2019-04-04T09:27:05.124Z,19.75
2019-04-04T09:29:33.799Z,22.00
2019-04-04T09:32:02.559Z,20.23
2019-04-04T09:34:31.164Z,22.07
2019-04-04T09:36:59.864Z,19.20
2019-04-04T09:39:28.472Z,19.20
2019-04-04T09:41:57.131Z,21.33
2019-04-04T09:44:25.829Z,20.65
2019-04-04T09:47:04.872Z,22.73
2019-04-04T09:49:25.151Z,22.00
2019-04-04T09:51:53.747Z,18.12
2019-04-04T09:54:22.450Z,19.67
2019-04-04T09:56:51.128Z,18.92
2019-04-04T09:59:19.850Z,22.10
2019-04-04T10:01:48.523Z,18.55
2019-04-04T10:04:17.600Z,17.73
2019-04-04T10:06:46.602Z,19.60
2019-04-04T10:09:16.315Z,17.30
2019-04-04T10:11:45.916Z,21.05
2019-04-04T10:14:14.580Z,19.92
2019-04-04T10:16:43.285Z,21.17
2019-04-04T10:19:11.957Z,18.65
2019-04-04T10:21:40.632Z,18.70
2019-04-04T10:24:09.257Z,20.27
2019-04-04T10:26:37.941Z,17.82
2019-04-04T10:29:06.652Z,18.25
2019-04-04T10:31:35.320Z,22.25
2019-04-04T10:34:04.032Z,25.82
2019-04-04T10:36:32.703Z,22.77
2019-04-04T10:39:01.323Z,21.12
2019-04-04T10:41:30.030Z,20.85
2019-04-04T10:43:58.714Z,22.17
2019-04-04T10:46:27.436Z,23.45
2019-04-04T10:48:56.065Z,21.48
2019-04-04T10:51:24.754Z,20.75
2019-04-04T10:53:53.442Z,20.75
2019-04-04T10:56:22.038Z,23.40
2019-04-04T10:58:50.682Z,22.37
2019-04-04T11:01:19.351Z,20.95
2019-04-04T11:03:48.051Z,23.35
2019-04-04T11:06:16.756Z,27.98
2019-04-04T11:08:45.369Z,26.25
2019-04-04T11:11:14.060Z,22.25
2019-04-04T11:13:42.757Z,23.92
2019-04-04T11:16:11.461Z,28.55
2019-04-04T11:18:40.140Z,22.45
2019-04-04T11:21:08.888Z,23.15
2019-04-04T11:23:37.580Z,27.98
2019-04-04T11:26:06.256Z,24.60
2019-04-04T11:28:34.962Z,21.15
2019-04-04T11:31:03.703Z,26.93
2019-04-04T11:33:32.405Z,28.02
2019-04-04T11:36:01.106Z,24.15
2019-04-04T11:38:29.836Z,22.52
2019-04-04T11:40:58.516Z,25.37
2019-04-04T11:43:27.137Z,24.60
2019-04-04T11:45:55.767Z,30.72
2019-04-04T11:48:24.439Z,21.57
2019-04-04T11:50:53.168Z,30.12
2019-04-04T11:53:21.779Z,26.27
2019-04-04T11:55:50.467Z,25.05
2019-04-04T11:58:19.114Z,23.98
2019-04-04T12:00:49.426Z,26.07
2019-04-04T12:03:18.420Z,26.62
2019-04-04T12:05:47.014Z,26.40
2019-04-04T12:08:15.688Z,29.05
2019-04-04T12:10:44.289Z,31.30
2019-04-04T12:13:12.982Z,32.30
2019-04-04T12:15:41.688Z,29.67
2019-04-04T12:18:10.359Z,33.98
2019-04-04T12:20:39.063Z,45.28
2019-04-04T12:23:07.749Z,33.25
2019-04-04T12:25:36.450Z,30.88
2019-04-04T12:28:05.041Z,35.88
2019-04-04T12:30:33.676Z,32.35
2019-04-04T12:33:02.411Z,36.93
2019-04-04T12:35:31.041Z,37.98
2019-04-04T12:37:59.739Z,31.45
2019-04-04T12:40:28.419Z,33.70
2019-04-04T12:42:57.060Z,35.20
2019-04-04T12:45:25.745Z,40.10
2019-04-04T12:47:54.429Z,32.05
2019-04-04T12:50:23.189Z,35.25
2019-04-04T12:52:51.815Z,37.42
2019-04-04T12:55:20.507Z,32.90
2019-04-04T12:57:49.190Z,33.53
2019-04-04T13:00:17.882Z,31.48
2019-04-04T13:02:46.555Z,31.45
2019-04-04T13:05:15.223Z,33.65
2019-04-04T13:07:43.876Z,31.75
2019-04-04T13:10:12.546Z,32.35
2019-04-04T13:12:41.255Z,35.58
2019-04-04T13:15:11.150Z,33.53
2019-04-04T13:17:39.816Z,32.53
2019-04-04T13:20:08.584Z,34.98
2019-04-04T13:22:37.267Z,31.62
2019-04-04T13:25:07.284Z,33.33
2019-04-04T13:27:35.971Z,31.73
2019-04-04T13:30:07.926Z,29.12
2019-04-04T13:32:36.904Z,28.42
2019-04-04T13:35:05.998Z,29.15
2019-04-04T13:37:34.989Z,29.23
2019-04-04T13:40:05.606Z,28.75
2019-04-04T13:42:34.601Z,28.00
2019-04-04T13:45:04.053Z,23.45
2019-04-04T13:47:32.715Z,25.63
2019-04-04T13:50:01.361Z,27.85
2019-04-04T13:52:29.989Z,27.65
2019-04-04T13:54:58.610Z,27.00
2019-04-04T13:57:27.304Z,21.80
2019-04-04T13:59:55.910Z,25.30
2019-04-04T14:02:24.555Z,25.55
2019-04-04T14:04:55.343Z,24.12
2019-04-04T14:07:23.875Z,21.68
2019-04-04T14:09:52.483Z,23.85
2019-04-04T14:12:21.142Z,21.20
2019-04-04T14:14:49.753Z,22.37
2019-04-04T14:17:18.434Z,21.85
2019-04-04T14:19:47.131Z,22.07
2019-04-04T14:22:15.750Z,20.00
2019-04-04T14:24:44.163Z,20.85
2019-04-04T14:27:12.583Z,21.15
2019-04-04T14:29:40.979Z,24.07
2019-04-04T14:32:09.296Z,25.88
2019-04-04T14:34:37.942Z,21.17
2019-04-04T14:37:06.564Z,23.13
2019-04-04T14:39:34.994Z,24.30
2019-04-04T14:42:03.391Z,24.47
2019-04-04T14:44:31.801Z,23.35
2019-04-04T14:47:00.123Z,21.75
2019-04-04T14:49:28.518Z,23.90
2019-04-04T14:51:57.133Z,20.05
2019-04-04T14:56:53.544Z,23.30
2019-04-04T14:59:22.229Z,25.93
2019-04-04T15:01:50.918Z,25.50
2019-04-04T15:06:47.272Z,25.40
2019-04-04T15:09:15.961Z,24.97
2019-04-04T15:11:44.666Z,27.27
2019-04-04T15:14:13.361Z,26.73
2019-04-04T15:19:09.722Z,24.25
2019-04-04T15:21:38.410Z,25.40
2019-04-04T15:26:34.798Z,26.05
2019-04-04T15:31:31.143Z,29.20
2019-04-04T15:36:27.548Z,32.98
2019-04-04T15:41:35.945Z,31.27
2019-04-04T15:43:53.920Z,31.10
2019-04-04T15:46:22.356Z,30.08
2019-04-04T15:48:50.970Z,29.30
2019-04-04T15:51:19.390Z,32.13
2019-04-04T15:53:48.005Z,32.42
2019-04-04T15:56:16.420Z,32.42
2019-04-04T15:58:45.106Z,30.90
2019-04-04T16:01:13.505Z,38.78
2019-04-04T16:03:42.211Z,40.17
2019-04-04T16:06:10.662Z,37.98
2019-04-04T16:08:39.065Z,35.92
2019-04-04T16:11:07.770Z,37.28
2019-04-04T16:13:36.167Z,36.08
2019-04-04T16:16:04.875Z,40.67
2019-04-04T16:18:33.543Z,37.93
2019-04-04T16:21:02.160Z,39.73
2019-04-04T16:23:30.781Z,38.60
2019-04-04T16:25:59.462Z,39.45
2019-04-04T16:28:28.159Z,37.98
2019-04-04T16:30:56.762Z,37.42
2019-04-04T16:33:26.552Z,36.63
2019-04-04T16:35:55.337Z,37.13
2019-04-04T16:38:23.955Z,37.85
2019-04-04T16:40:52.657Z,39.20
2019-04-04T16:43:21.388Z,42.90
2019-04-04T16:45:50.064Z,60.17
2019-04-04T16:48:18.765Z,46.75
2019-04-04T16:50:47.450Z,40.15
2019-04-04T16:53:16.158Z,43.95
2019-04-04T16:55:44.557Z,41.58
2019-04-04T16:58:13.201Z,41.85
2019-04-04T17:00:41.895Z,41.95
2019-04-04T17:03:10.625Z,39.50
2019-04-04T17:05:39.013Z,41.02
2019-04-04T17:08:07.659Z,37.50
2019-04-04T17:10:36.067Z,40.58
2019-04-04T17:13:04.778Z,40.52
2019-04-04T17:15:33.462Z,35.90
2019-04-04T17:18:02.074Z,34.85
2019-04-04T17:20:30.685Z,34.98
2019-04-04T17:22:59.377Z,31.17
2019-04-04T17:25:28.075Z,35.50
2019-04-04T17:27:57.024Z,32.40
2019-04-04T17:32:53.141Z,23.13
2019-04-04T17:35:22.379Z,23.40
2019-04-04T17:37:51.629Z,25.65
2019-04-04T17:42:47.708Z,22.20
2019-04-04T17:45:16.466Z,27.00
2019-04-04T17:47:45.277Z,33.15
2019-04-04T17:52:42.348Z,25.50
2019-04-04T17:57:38.518Z,24.27
2019-04-04T18:00:06.941Z,22.70
2019-04-04T18:02:35.586Z,26.75
2019-04-04T18:05:07.291Z,23.15
2019-04-04T18:07:36.305Z,24.57
2019-04-04T18:10:06.026Z,24.95
2019-04-04T18:12:40.528Z,23.05
2019-04-04T18:15:07.438Z,24.85
2019-04-04T18:17:36.417Z,26.33
2019-04-04T18:20:06.661Z,24.25
2019-04-04T18:22:35.640Z,28.92
2019-04-04T18:25:07.831Z,26.45
2019-04-04T18:27:36.794Z,31.60
2019-04-04T18:30:10.982Z,28.92
2019-04-04T18:32:39.918Z,27.30
2019-04-04T18:35:08.606Z,23.60
2019-04-04T18:37:37.404Z,30.10
2019-04-04T18:40:08.718Z,26.90
2019-04-04T18:42:37.662Z,26.40
2019-04-04T18:45:06.609Z,29.90
2019-04-04T18:50:02.656Z,39.70
2019-04-04T18:52:31.340Z,27.70
2019-04-04T18:54:59.984Z,27.82
2019-04-04T18:57:28.622Z,27.25
2019-04-04T18:59:57.344Z,28.12
2019-04-04T19:02:26.025Z,26.23
2019-04-04T19:04:54.725Z,26.05
2019-04-04T19:07:23.430Z,28.55
2019-04-04T19:09:52.118Z,30.77
2019-04-04T19:12:20.745Z,25.95
2019-04-04T19:14:49.422Z,25.72
2019-04-04T19:17:18.063Z,26.97
2019-04-04T19:19:46.755Z,24.95
2019-04-04T19:22:15.578Z,29.50
2019-04-04T19:24:44.255Z,27.50
2019-04-04T19:27:12.986Z,26.10
2019-04-04T19:29:41.684Z,26.95
2019-04-04T19:32:10.520Z,29.57
2019-04-04T19:34:39.149Z,26.35
2019-04-04T19:37:07.824Z,29.05
2019-04-04T19:39:36.454Z,26.77
2019-04-04T19:42:05.292Z,27.35
2019-04-04T19:44:34.004Z,25.23
2019-04-04T19:47:02.691Z,33.15
2019-04-04T19:49:31.300Z,29.45
2019-04-04T19:51:59.996Z,29.45
2019-04-04T19:54:28.705Z,32.50
2019-04-04T19:56:57.404Z,32.83
2019-04-04T19:59:26.095Z,28.17
2019-04-04T20:01:54.808Z,31.60
2019-04-04T20:04:23.490Z,29.63
2019-04-04T20:06:52.190Z,30.57
2019-04-04T20:09:20.885Z,30.12
2019-04-04T20:11:49.556Z,27.45
2019-04-04T20:14:18.245Z,28.98
2019-04-04T20:16:46.898Z,26.68
2019-04-04T20:19:15.593Z,26.57
2019-04-04T20:21:44.258Z,33.28
2019-04-04T20:24:12.943Z,34.18
2019-04-04T20:26:41.554Z,35.90
2019-04-04T20:29:10.162Z,26.33
2019-04-04T20:31:38.767Z,35.55
2019-04-04T20:34:07.430Z,33.95
2019-04-04T20:36:36.147Z,38.38
2019-04-04T20:39:06.470Z,39.63
2019-04-04T20:41:37.325Z,35.35
2019-04-04T20:44:06.295Z,40.92
2019-04-04T20:46:35.030Z,40.90
2019-04-04T20:49:03.766Z,40.88
2019-04-04T20:51:32.473Z,37.88
2019-04-04T20:54:01.215Z,54.58
2019-04-04T20:56:29.913Z,40.80
2019-04-04T20:58:58.541Z,43.35
2019-04-04T21:01:27.213Z,41.28
2019-04-04T21:03:55.834Z,45.08
2019-04-04T21:06:24.507Z,49.15
2019-04-04T21:08:53.169Z,49.83
2019-04-04T21:11:21.781Z,54.13
2019-04-04T21:13:56.051Z,45.25
2019-04-04T21:16:21.128Z,48.20
2019-04-04T21:18:49.799Z,53.08
2019-04-04T21:21:18.509Z,46.10
2019-04-04T21:23:47.172Z,43.40
2019-04-04T21:26:15.799Z,54.42
2019-04-04T21:28:44.407Z,48.48
2019-04-04T21:31:13.086Z,58.50
2019-04-04T21:33:41.714Z,56.42
2019-04-04T21:36:10.316Z,59.50
2019-04-04T21:38:39.015Z,45.60
2019-04-04T21:41:07.647Z,43.35
2019-04-04T21:43:36.257Z,44.70
2019-04-04T21:46:04.944Z,51.28
2019-04-04T21:48:33.622Z,46.77
2019-04-04T21:51:02.247Z,43.80
2019-04-04T21:53:30.944Z,63.52
2019-04-04T21:55:59.568Z,54.30
2019-04-04T21:58:28.188Z,49.65
2019-04-04T22:00:56.909Z,45.35
2019-04-04T22:03:25.614Z,50.38
2019-04-04T22:05:54.317Z,45.98
2019-04-04T22:08:23.049Z,43.78
2019-04-04T22:10:51.743Z,47.35
2019-04-04T22:13:20.548Z,43.90
2019-04-04T22:15:49.247Z,57.67
2019-04-04T22:18:17.955Z,46.48
2019-04-04T22:20:46.677Z,51.05
2019-04-04T22:23:15.379Z,53.05
2019-04-04T22:25:44.097Z,49.30
2019-04-04T22:28:12.797Z,58.08
2019-04-04T22:30:41.539Z,58.35
2019-04-04T22:33:10.257Z,57.35
2019-04-04T22:35:38.943Z,63.35
2019-04-04T22:38:07.663Z,66.45
2019-04-04T22:40:36.361Z,60.85
2019-04-04T22:43:05.099Z,57.40
2019-04-04T22:45:33.804Z,66.35
2019-04-04T22:48:02.528Z,61.60
2019-04-04T22:50:31.225Z,65.40
2019-04-04T22:52:59.943Z,74.65
2019-04-04T22:55:28.645Z,65.40
2019-04-04T22:57:59.081Z,58.10
2019-04-04T23:00:28.087Z,63.15
2019-04-04T23:02:57.462Z,65.28
2019-04-04T23:05:26.488Z,57.25
2019-04-04T23:07:55.203Z,65.92
2019-04-04T23:10:23.913Z,67.30
2019-04-04T23:12:52.630Z,59.33
2019-04-04T23:15:21.363Z,75.03
2019-04-04T23:17:50.063Z,63.83
2019-04-04T23:20:18.775Z,96.60
2019-04-04T23:22:53.135Z,66.47
2019-04-04T23:25:18.126Z,83.90
2019-04-04T23:27:46.842Z,83.78
2019-04-04T23:30:15.542Z,83.80
2019-04-04T23:32:44.267Z,105.32
2019-04-04T23:35:12.963Z,81.60
2019-04-04T23:37:41.693Z,99.25
2019-04-04T23:40:10.428Z,90.87
2019-04-04T23:42:39.199Z,99.50
2019-04-04T23:45:07.875Z,97.88
2019-04-04T23:47:42.766Z,122.92
2019-04-04T23:50:07.357Z,99.17
2019-04-04T23:52:36.077Z,115.90
2019-04-04T23:55:05.580Z,106.45
2019-04-04T23:57:34.614Z,91.70
